Terminal Aerodrome Forecast
Issued by NWS

Current Version | Previous Version | Text Only | Print | Product List | Glossary On
Versions: 1 2 3 4 5 6 7 8 9 10 11 12 13 14 15
000
FTUS45 KREV 051740
TAFTRK
TAF
KTRK 051740Z 0518/0618 VRB04KT P6SM SCT035 BKN180
     FM052000 31007KT 6SM -SHRA VCTS BKN035CB OVC050
     FM060100 29008KT P6SM -RA SCT030 OVC050=

USA.gov is the U.S. government's official web portal to all federal, state and local government web resources and services.